Time;durP1;ratioP1;P1;durP2;ratioP2;P2;SDS_P1;SDS_P2;PMS_P1;PMS_P2;Temp;Humidity;BMP_temperature;BMP_pressure;BME280_temperature;BME280_humidity;BME280_pressure;Samples;Min_cycle;Max_cycle;Signal;HPM_P1;HPM_P2
2021/11/26 08:57:04;;;;;;;9.65;2.33;;;;;;;;;;5152910;27;20156;-70
2021/11/26 08:59:30;;;;;;;14.95;2.60;;;;;;;;;;5113635;27;20071;-71
2021/11/26 09:01:55;;;;;;;10.55;2.10;;;;;;;;;;5110146;28;20376;-70
2021/11/26 09:04:22;;;;;;;18.63;2.10;;;;;;;;;;5115281;27;20138;-71
2021/11/26 09:06:49;;;;;;;6.13;1.70;;;;;;;;;;5111372;28;20036;-73
2021/11/26 09:09:15;;;;;;;16.20;2.25;;;;;;;;;;5111425;28;20549;-70
2021/11/26 09:11:41;;;;;;;10.30;2.20;;;;;;;;;;5109863;28;20069;-74
2021/11/26 09:14:06;;;;;;;12.98;3.20;;;;;;;;;;5111050;28;20039;-74
2021/11/26 09:16:32;;;;;;;15.90;2.20;;;;;;;;;;5110375;28;20501;-74
2021/11/26 09:18:58;;;;;;;7.53;2.15;;;;;;;;;;5126073;27;20047;-71
2021/11/26 09:21:23;;;;;;;12.45;2.03;;;;;;;;;;5129252;28;20043;-71
2021/11/26 09:23:49;;;;;;;7.90;1.85;;;;;;;;;;5131461;27;20032;-71
2021/11/26 09:26:15;;;;;;;6.85;1.70;;;;;;;;;;5131355;28;20039;-71
2021/11/26 09:28:41;;;;;;;7.05;1.92;;;;;;;;;;5129832;27;20510;-71
2021/11/26 09:31:06;;;;;;;7.10;1.70;;;;;;;;;;5130308;28;20034;-72
2021/11/26 09:33:35;;;;;;;9.48;1.80;;;;;;;;;;5131319;27;20045;-71
2021/11/26 09:36:05;;;;;;;16.20;1.90;;;;;;;;;;5130033;28;20036;-72
2021/11/26 09:38:32;;;;;;;8.00;1.92;;;;;;;;;;5131170;27;20027;-72
2021/11/26 09:40:57;;;;;;;5.22;1.65;;;;;;;;;;5130976;27;20019;-71
2021/11/26 09:43:23;;;;;;;7.80;1.63;;;;;;;;;;5128524;27;20020;-72
2021/11/26 09:45:49;;;;;;;5.15;1.60;;;;;;;;;;5131070;27;20088;-72
2021/11/26 09:48:14;;;;;;;3.22;1.40;;;;;;;;;;5130937;27;20027;-72
2021/11/26 09:50:40;;;;;;;6.47;1.10;;;;;;;;;;5129579;27;20573;-71
2021/11/26 09:53:26;;;;;;;7.72;1.48;;;;;;;;;;5129174;27;20027;-72
2021/11/26 09:55:59;;;;;;;15.52;2.15;;;;;;;;;;5115204;28;20047;-71
2021/11/26 09:58:26;;;;;;;7.25;1.75;;;;;;;;;;5122626;27;20036;-72
2021/11/26 10:00:53;;;;;;;9.00;1.65;;;;;;;;;;5110106;27;20024;-71
2021/11/26 10:03:20;;;;;;;9.00;1.70;;;;;;;;;;5110245;28;20033;-71
2021/11/26 10:05:47;;;;;;;8.55;1.80;;;;;;;;;;5108778;28;20020;-70
2021/11/26 10:08:20;;;;;;;4.20;1.70;;;;;;;;;;5096265;28;20055;-71
2021/11/26 10:10:45;;;;;;;6.50;1.27;;;;;;;;;;5096426;28;20024;-70
2021/11/26 10:13:12;;;;;;;7.32;1.42;;;;;;;;;;5096427;28;20036;-71
2021/11/26 10:15:45;;;;;;;6.88;1.50;;;;;;;;;;5096382;28;20436;-72
2021/11/26 10:18:15;;;;;;;15.63;1.55;;;;;;;;;;5077888;28;20029;-71
2021/11/26 10:20:52;;;;;;;3.45;1.30;;;;;;;;;;5096110;28;20489;-71
2021/11/26 10:23:18;;;;;;;9.35;1.50;;;;;;;;;;5096366;28;20032;-71
2021/11/26 10:25:44;;;;;;;4.63;1.17;;;;;;;;;;5096129;28;20034;-71
2021/11/26 10:28:10;;;;;;;3.88;1.42;;;;;;;;;;5094943;28;20380;-71
2021/11/26 10:30:40;;;;;;;5.20;1.50;;;;;;;;;;5095668;28;20028;-72
2021/11/26 10:33:09;;;;;;;3.35;1.02;;;;;;;;;;5094583;28;20032;-70
2021/11/26 10:35:37;;;;;;;2.67;1.02;;;;;;;;;;5095843;28;20032;-70
2021/11/26 10:38:02;;;;;;;3.42;1.10;;;;;;;;;;5096002;28;20082;-71
2021/11/26 10:40:31;;;;;;;3.60;0.95;;;;;;;;;;5095801;28;20028;-73
2021/11/26 10:42:57;;;;;;;4.70;1.45;;;;;;;;;;5094594;28;20078;-74
2021/11/26 10:45:41;;;;;;;4.50;1.05;;;;;;;;;;5095845;28;20032;-73
2021/11/26 10:50:45;;;;;;;;;;;;;;;;;;5097510;28;20384;-71
2021/11/26 10:58:49;;;;;;;4.80;1.20;;;;;;;;;;5099468;28;20020;-70
2021/11/26 11:01:15;;;;;;;3.30;1.20;;;;;;;;;;5094067;28;20024;-74
2021/11/26 12:36:14;;;;;;;3.75;0.70;;;;;;;;;;5110146;27;20374;-72
2021/11/26 12:38:48;;;;;;;2.17;0.85;;;;;;;;;;5112221;28;20016;-71
2021/11/26 12:41:14;;;;;;;5.45;0.82;;;;;;;;;;5122578;27;20098;-77
2021/11/26 12:43:41;;;;;;;2.40;0.88;;;;;;;;;;5085426;28;20474;-72
2021/11/26 12:46:17;;;;;;;3.42;0.90;;;;;;;;;;5100304;28;20020;-73
2021/11/26 12:48:55;;;;;;;2.78;0.85;;;;;;;;;;5109647;28;20501;-69
